Time;durP1;ratioP1;P1;durP2;ratioP2;P2;SDS_P1;SDS_P2;PMS_P1;PMS_P2;Temp;Humidity;BMP_temperature;BMP_pressure;BME280_temperature;BME280_humidity;BME280_pressure;Samples;Min_cycle;Max_cycle;Signal;HPM_P1;HPM_P2
2022/09/13 00:01:08;;;;;;;14.10;11.60;;;;;;;10.79;100.00;94795.16;5112398;27;20048;-69
2022/09/13 00:03:35;;;;;;;14.00;11.30;;;;;;;10.88;100.00;94796.38;5101853;27;20506;-69
2022/09/13 00:06:14;;;;;;;12.80;10.30;;;;;;;10.81;100.00;94805.34;5098128;27;21427;-69
2022/09/13 00:08:41;;;;;;;16.92;11.40;;;;;;;10.76;100.00;94798.22;5101354;27;20039;-68
2022/09/13 00:11:15;;;;;;;13.70;11.40;;;;;;;10.88;100.00;94801.56;5079092;27;20070;-69
2022/09/13 00:13:42;;;;;;;12.55;11.02;;;;;;;10.83;100.00;94792.88;5106399;27;20096;-68
2022/09/13 00:16:14;;;;;;;14.23;11.30;;;;;;;10.78;100.00;94801.38;5080562;28;20043;-68
2022/09/13 00:18:42;;;;;;;13.60;11.25;;;;;;;10.75;100.00;94801.88;5099368;27;20043;-68
2022/09/13 00:21:12;;;;;;;14.13;10.80;;;;;;;10.71;100.00;94803.34;5080082;27;20040;-68
2022/09/13 00:23:43;;;;;;;13.80;11.27;;;;;;;10.64;100.00;94800.06;5100908;27;20108;-69
2022/09/13 00:26:12;;;;;;;12.32;10.50;;;;;;;10.52;100.00;94787.88;5098594;27;21068;-68
2022/09/13 00:28:39;;;;;;;13.02;10.70;;;;;;;10.36;100.00;94780.81;5101015;27;20039;-69
2022/09/13 00:31:08;;;;;;;12.60;10.48;;;;;;;10.31;100.00;94778.09;5101184;27;20540;-68
2022/09/13 00:33:36;;;;;;;13.20;10.30;;;;;;;10.32;100.00;94779.69;5101259;27;20486;-68
2022/09/13 00:36:04;;;;;;;15.45;10.77;;;;;;;10.22;100.00;94787.25;5100353;28;20338;-69
2022/09/13 00:38:33;;;;;;;11.43;9.68;;;;;;;10.22;100.00;94782.03;5099813;27;20165;-69
2022/09/13 00:41:00;;;;;;;13.18;10.80;;;;;;;10.18;100.00;94786.91;5082324;28;20043;-68
2022/09/13 00:43:44;;;;;;;14.07;11.32;;;;;;;10.13;100.00;94779.78;5097727;27;20045;-68
2022/09/13 00:46:16;;;;;;;19.67;11.05;;;;;;;10.06;100.00;94789.53;5103898;27;20126;-68
2022/09/13 00:48:46;;;;;;;15.75;11.18;;;;;;;10.00;100.00;94777.44;5098016;28;20057;-68
2022/09/13 00:51:13;;;;;;;13.82;11.23;;;;;;;10.02;100.00;94778.00;5093405;27;20064;-68
2022/09/13 00:53:46;;;;;;;17.95;11.18;;;;;;;10.03;100.00;94777.00;5099714;27;20168;-68
2022/09/13 00:56:31;;;;;;;11.75;10.40;;;;;;;10.09;100.00;94778.66;5100293;27;20050;-69
2022/09/13 00:59:04;;;;;;;14.23;10.73;;;;;;;10.11;100.00;94776.63;5096034;27;20405;-67
2022/09/13 01:01:39;;;;;;;16.25;10.90;;;;;;;10.07;100.00;94785.91;5102153;27;20047;-67
2022/09/13 01:04:06;;;;;;;14.13;10.60;;;;;;;9.98;100.00;94776.88;5080799;28;20046;-68
2022/09/13 01:06:40;;;;;;;14.05;10.63;;;;;;;9.93;100.00;94758.56;5085166;27;20051;-68
2022/09/13 01:09:09;;;;;;;13.05;11.10;;;;;;;10.01;100.00;94766.03;5097866;28;20122;-67
2022/09/13 01:11:48;;;;;;;13.75;11.15;;;;;;;10.03;100.00;94766.59;5102473;27;20040;-67
2022/09/13 01:14:19;;;;;;;15.02;11.43;;;;;;;10.04;100.00;94765.53;5078550;28;20047;-67
2022/09/13 01:16:46;;;;;;;13.55;11.63;;;;;;;10.01;100.00;94768.63;5097620;27;20047;-68
2022/09/13 01:19:14;;;;;;;13.98;11.77;;;;;;;9.99;100.00;94762.84;5080228;28;20791;-67
2022/09/13 01:22:18;;;;;;;15.32;11.52;;;;;;;10.01;100.00;94766.03;5079538;28;20052;-68
2022/09/13 01:25:05;;;;;;;13.48;10.88;;;;;;;10.00;100.00;94769.63;5078055;28;20051;-67
2022/09/13 01:27:47;;;;;;;14.18;10.60;;;;;;;10.06;100.00;94767.91;5099233;28;20115;-68
2022/09/13 01:30:21;;;;;;;15.88;10.70;;;;;;;10.08;100.00;94761.50;5098846;28;20043;-67
2022/09/13 01:33:07;;;;;;;14.38;11.85;;;;;;;10.09;100.00;94763.06;5098466;28;20058;-70
2022/09/13 01:35:59;;;;;;;13.82;10.90;;;;;;;10.13;100.00;94758.97;5079219;28;20047;-67
2022/09/13 01:39:00;;;;;;;12.85;10.05;;;;;;;10.18;100.00;94760.09;5100896;28;20071;-67
2022/09/13 01:41:37;;;;;;;13.55;9.98;;;;;;;10.18;100.00;94754.91;5101909;28;20164;-68
2022/09/13 01:44:43;;;;;;;15.13;10.55;;;;;;;10.31;100.00;94752.06;5098559;28;20245;-68
2022/09/13 01:47:25;;;;;;;12.60;10.15;;;;;;;10.43;100.00;94755.44;4993178;28;20172;-68
2022/09/13 01:49:51;;;;;;;14.95;10.82;;;;;;;10.41;100.00;94749.66;5089867;28;20042;-68
2022/09/13 01:52:54;;;;;;;13.73;9.52;;;;;;;10.40;100.00;94753.28;5076993;28;20053;-68
2022/09/13 01:55:22;;;;;;;12.18;9.52;;;;;;;10.35;100.00;94749.78;5080519;28;20151;-68
2022/09/13 01:58:13;;;;;;;12.50;9.63;;;;;;;10.31;100.00;94755.44;5076942;28;20158;-68
2022/09/13 02:00:47;;;;;;;13.30;9.50;;;;;;;10.25;100.00;94755.56;5106242;27;20052;-67
2022/09/13 02:03:21;;;;;;;16.83;10.07;;;;;;;10.13;100.00;94748.56;5099736;27;20051;-68
2022/09/13 02:06:00;;;;;;;12.25;8.60;;;;;;;10.07;100.00;94749.47;5109592;27;20123;-68
2022/09/13 02:08:32;;;;;;;11.05;9.75;;;;;;;9.98;100.00;94750.84;5105028;27;20043;-67
2022/09/13 02:11:11;;;;;;;10.13;8.75;;;;;;;9.99;100.00;94752.44;5106714;27;20036;-68
2022/09/13 02:13:48;;;;;;;13.88;9.15;;;;;;;9.98;100.00;94750.06;5099482;27;20047;-68
2022/09/13 02:16:25;;;;;;;11.85;9.30;;;;;;;10.00;100.00;94756.63;5107059;27;20043;-68
2022/09/13 02:18:58;;;;;;;14.38;8.68;;;;;;;9.93;100.00;94751.53;5099221;27;20634;-68
2022/09/13 02:21:29;;;;;;;11.50;8.70;;;;;;;9.88;100.00;94753.25;5074412;28;20076;-68
2022/09/13 02:24:05;;;;;;;12.10;8.40;;;;;;;9.80;100.00;94748.41;5099484;27;20132;-68
2022/09/13 02:26:36;;;;;;;12.30;9.15;;;;;;;9.82;100.00;94743.75;5101716;27;20042;-68
2022/09/13 02:29:10;;;;;;;14.90;9.95;;;;;;;9.87;100.00;94728.25;5080594;28;20061;-68
2022/09/13 02:31:45;;;;;;;16.30;9.88;;;;;;;10.00;100.00;94748.81;5105134;27;20121;-68
2022/09/13 02:34:18;;;;;;;10.85;8.98;;;;;;;9.97;100.00;94749.25;5100333;27;20067;-68
2022/09/13 02:36:48;;;;;;;14.05;9.30;;;;;;;9.99;100.00;94736.81;5104402;27;20156;-68
2022/09/13 02:39:20;;;;;;;17.30;9.80;;;;;;;9.99;100.00;94742.03;5103447;27;20040;-68
2022/09/13 02:42:05;;;;;;;11.23;9.55;;;;;;;10.08;100.00;94745.88;5102552;27;20046;-68
2022/09/13 02:44:44;;;;;;;14.18;10.00;;;;;;;10.11;100.00;94744.63;5107901;27;20047;-68
2022/09/13 02:47:33;;;;;;;14.97;10.37;;;;;;;10.14;100.00;94747.53;5101362;27;20246;-67
2022/09/13 02:50:18;;;;;;;11.75;10.15;;;;;;;10.13;100.00;94738.16;5097738;27;20126;-68
2022/09/13 02:53:00;;;;;;;13.20;9.38;;;;;;;10.11;100.00;94740.19;5081058;28;20051;-68
2022/09/13 02:55:52;;;;;;;12.38;9.88;;;;;;;10.08;100.00;94745.88;5098832;27;20597;-68
2022/09/13 02:58:31;;;;;;;11.45;9.45;;;;;;;10.05;100.00;94741.13;5117807;27;20043;-68
2022/09/13 03:00:58;;;;;;;13.25;9.27;;;;;;;9.99;100.00;94747.22;5099551;27;20059;-68
2022/09/13 03:03:25;;;;;;;16.50;9.90;;;;;;;9.96;100.00;94742.50;5100821;27;20044;-68
2022/09/13 03:05:52;;;;;;;14.10;9.90;;;;;;;9.97;100.00;94744.06;5100433;27;20036;-68
2022/09/13 03:08:21;;;;;;;15.15;10.80;;;;;;;9.96;100.00;94750.31;5098955;27;20085;-69
2022/09/13 03:11:07;;;;;;;14.25;9.60;;;;;;;9.92;100.00;94752.56;5082383;28;20528;-68
2022/09/13 03:14:01;;;;;;;10.88;8.25;;;;;;;9.74;100.00;94753.50;5098204;27;20746;-68
2022/09/13 03:16:46;;;;;;;13.10;9.32;;;;;;;9.69;100.00;94755.19;5098141;27;20051;-68
2022/09/13 03:19:34;;;;;;;16.17;9.77;;;;;;;9.67;100.00;94745.00;5103530;27;20146;-68
2022/09/13 03:22:07;;;;;;;15.82;10.57;;;;;;;9.69;100.00;94753.38;5097118;28;20039;-67
2022/09/13 03:25:07;;;;;;;13.90;10.60;;;;;;;9.71;100.00;94753.94;5099920;27;20044;-68
2022/09/13 03:27:46;;;;;;;14.43;10.38;;;;;;;9.65;100.00;94747.06;5079990;27;20047;-68
2022/09/13 03:30:16;;;;;;;14.18;11.10;;;;;;;9.59;100.00;94747.94;5085944;27;20035;-68
2022/09/13 03:32:54;;;;;;;13.80;9.40;;;;;;;9.53;100.00;94738.44;5099409;27;20452;-68
2022/09/13 03:35:24;;;;;;;16.17;9.70;;;;;;;9.52;100.00;94747.25;5082693;28;20040;-68
2022/09/13 03:37:57;;;;;;;18.40;9.90;;;;;;;9.44;100.00;94750.22;5100402;27;20044;-68
2022/09/13 03:40:35;;;;;;;12.05;9.32;;;;;;;9.35;100.00;94747.94;5101928;27;20050;-68
2022/09/13 03:43:14;;;;;;;19.58;10.05;;;;;;;9.27;100.00;94752.66;5099232;27;20043;-67
2022/09/13 03:45:52;;;;;;;14.00;10.27;;;;;;;9.17;100.00;94737.63;5101501;27;20035;-68
2022/09/13 03:48:21;;;;;;;14.68;10.52;;;;;;;9.12;100.00;94755.69;5101940;27;20126;-68
2022/09/13 03:50:49;;;;;;;13.65;10.52;;;;;;;9.08;100.00;94757.16;5104092;27;20067;-68
2022/09/13 03:53:23;;;;;;;13.02;9.50;;;;;;;9.01;100.00;94751.28;5097476;27;20069;-68
2022/09/13 03:55:50;;;;;;;14.27;11.07;;;;;;;8.96;100.00;94754.53;5077344;27;20147;-67
2022/09/13 03:58:19;;;;;;;17.17;10.25;;;;;;;8.95;100.00;94758.94;5101619;27;20050;-68
2022/09/13 04:00:46;;;;;;;14.82;10.57;;;;;;;8.99;100.00;94754.09;5099254;27;20067;-68
2022/09/13 04:03:14;;;;;;;14.48;11.27;;;;;;;9.03;100.00;94757.03;5063761;27;20067;-67
2022/09/13 04:05:41;;;;;;;17.33;10.75;;;;;;;9.01;100.00;94756.47;5081405;27;20040;-68
2022/09/13 04:08:08;;;;;;;14.27;10.57;;;;;;;9.01;100.00;94757.25;5084797;27;20136;-68
2022/09/13 04:10:36;;;;;;;14.90;9.88;;;;;;;9.08;100.00;94757.94;5080436;28;20054;-67
2022/09/13 04:13:03;;;;;;;17.00;11.30;;;;;;;9.12;100.00;94760.88;5099931;27;20047;-68
2022/09/13 04:15:30;;;;;;;13.65;9.85;;;;;;;9.12;100.00;94763.50;5100962;27;20039;-68
2022/09/13 04:17:57;;;;;;;15.77;9.30;;;;;;;9.10;100.00;94760.31;5080697;28;20067;-68
2022/09/13 04:20:24;;;;;;;13.80;9.93;;;;;;;9.01;100.00;94756.47;5079604;28;20052;-68
2022/09/13 04:22:52;;;;;;;15.90;10.05;;;;;;;9.13;100.00;94754.69;5083263;27;21074;-68
2022/09/13 04:25:21;;;;;;;17.98;10.73;;;;;;;9.17;100.00;94766.22;5103390;27;20038;-68
2022/09/13 04:27:52;;;;;;;14.20;10.88;;;;;;;9.10;100.00;94750.72;5098203;27;20520;-68
2022/09/13 04:30:20;;;;;;;13.13;10.55;;;;;;;9.16;100.00;94760.22;5101034;27;20096;-69
2022/09/13 04:32:46;;;;;;;17.52;10.93;;;;;;;9.17;100.00;94761.03;5064905;28;20055;-67
2022/09/13 04:35:15;;;;;;;18.95;11.13;;;;;;;9.27;100.00;94769.03;5100725;27;20119;-68
2022/09/13 04:37:43;;;;;;;40.85;19.42;;;;;;;9.24;100.00;94776.50;5098430;27;20059;-68
2022/09/13 04:40:10;;;;;;;34.33;19.00;;;;;;;9.34;100.00;94777.53;5104570;27;20750;-67
2022/09/13 04:42:37;;;;;;;32.58;18.35;;;;;;;9.44;100.00;94774.38;5099223;27;20055;-68
2022/09/13 04:45:05;;;;;;;35.33;21.02;;;;;;;9.47;100.00;94780.94;5101590;27;20067;-67
2022/09/13 04:47:32;;;;;;;22.33;14.85;;;;;;;9.49;100.00;94784.09;5081074;27;20040;-67
2022/09/13 04:49:59;;;;;;;19.17;11.35;;;;;;;9.49;100.00;94784.91;5081800;27;20036;-68
2022/09/13 04:52:26;;;;;;;14.43;9.88;;;;;;;9.49;100.00;94784.09;5078916;28;20036;-68
2022/09/13 04:54:53;;;;;;;17.08;8.65;;;;;;;9.47;100.00;94781.75;5102709;27;20093;-67
2022/09/13 04:57:20;;;;;;;13.50;9.60;;;;;;;9.43;100.00;94785.00;5104000;27;20629;-69
2022/09/13 04:59:47;;;;;;;19.52;8.80;;;;;;;9.33;100.00;94781.16;5097656;27;20051;-68
2022/09/13 05:02:13;;;;;;;17.17;9.73;;;;;;;9.33;100.00;94794.16;5100813;27;20055;-67
2022/09/13 05:04:40;;;;;;;12.15;9.43;;;;;;;9.32;100.00;94789.16;5097279;27;20059;-68
2022/09/13 05:07:07;;;;;;;16.67;9.27;;;;;;;9.46;100.00;94794.97;5102088;27;20116;-67
2022/09/13 05:09:34;;;;;;;12.90;9.65;;;;;;;9.55;100.00;94788.41;5096041;27;20604;-68
2022/09/13 05:12:01;;;;;;;11.45;9.00;;;;;;;9.63;100.00;94790.66;5100125;28;20075;-68
2022/09/13 05:14:27;;;;;;;14.43;8.85;;;;;;;9.69;100.00;94794.97;5097838;27;20612;-68
2022/09/13 05:16:54;;;;;;;14.20;10.38;;;;;;;9.77;100.00;94776.41;5099131;27;20035;-68
2022/09/13 05:19:21;;;;;;;11.85;10.10;;;;;;;10.00;100.00;94790.44;5099881;27;20039;-67
2022/09/13 05:21:48;;;;;;;13.27;10.25;;;;;;;10.14;100.00;94802.19;5099659;27;20067;-68
2022/09/13 05:24:14;;;;;;;15.30;10.50;;;;;;;10.30;100.00;94800.72;5080698;28;20177;-67
2022/09/13 05:26:41;;;;;;;13.55;9.88;;;;;;;10.47;100.00;94806.00;5099831;28;20124;-67
2022/09/13 05:29:08;;;;;;;20.98;10.98;;;;;;;10.63;100.00;94809.72;5099252;28;20036;-67
2022/09/13 05:31:37;;;;;;;13.10;9.80;;;;;;;10.83;100.00;94814.50;5100475;28;20058;-67
2022/09/13 05:34:09;;;;;;;13.90;9.65;;;;;;;10.99;100.00;94812.97;5100784;28;20508;-68
2022/09/13 05:36:36;;;;;;;12.88;9.48;;;;;;;11.11;100.00;94815.53;5078600;28;20063;-67
2022/09/13 05:39:04;;;;;;;12.07;9.43;;;;;;;11.23;100.00;94813.66;5098308;28;20060;-67
2022/09/13 05:41:51;;;;;;;19.85;9.20;;;;;;;11.25;100.00;94816.03;5098965;28;20807;-68
2022/09/13 05:44:17;;;;;;;13.38;8.57;;;;;;;11.17;100.00;94804.16;5080540;28;20494;-67
2022/09/13 05:46:47;;;;;;;11.52;8.45;;;;;;;11.27;100.00;94812.16;5096998;28;20036;-68
2022/09/13 05:49:14;;;;;;;13.60;9.63;;;;;;;11.22;100.00;94806.88;5098891;28;20052;-68
2022/09/13 05:51:41;;;;;;;11.05;8.75;;;;;;;11.37;100.00;94818.56;5096112;28;20047;-68
2022/09/13 05:54:10;;;;;;;17.63;9.60;;;;;;;11.40;100.00;94812.91;5096631;28;20098;-68
2022/09/13 05:56:37;;;;;;;13.70;9.45;;;;;;;11.47;100.00;94813.53;5077981;28;20461;-68
2022/09/13 05:59:04;;;;;;;11.57;9.15;;;;;;;11.42;100.00;94774.34;5082705;28;21142;-68
2022/09/13 06:01:31;;;;;;;22.05;8.88;;;;;;;11.71;100.00;94795.13;5099782;28;20059;-67
2022/09/13 06:03:58;;;;;;;11.73;9.30;;;;;;;11.92;100.00;94799.63;5094107;28;20767;-68
2022/09/13 06:06:25;;;;;;;11.05;8.65;;;;;;;12.00;100.00;94780.94;5098862;28;20074;-68
2022/09/13 06:08:54;;;;;;;16.58;10.18;;;;;;;12.27;100.00;94795.91;5097627;28;20567;-68
2022/09/13 06:11:22;;;;;;;15.25;9.30;;;;;;;12.42;100.00;94798.72;5081072;28;20621;-68
2022/09/13 06:13:49;;;;;;;12.48;8.88;;;;;;;12.64;100.00;94805.78;5095656;28;20066;-68
2022/09/13 06:16:16;;;;;;;14.85;8.77;;;;;;;12.88;100.00;94810.72;5096982;28;20633;-69
2022/09/13 06:18:44;;;;;;;15.85;10.98;;;;;;;13.13;100.00;94808.38;5077695;28;20088;-70
2022/09/13 06:21:21;;;;;;;16.05;12.00;;;;;;;13.25;100.00;94812.66;5080219;28;20042;-72
2022/09/13 06:23:54;;;;;;;123.15;53.50;;;;;;;13.17;100.00;94798.97;5078468;28;20047;-71
2022/09/13 06:26:24;;;;;;;16.17;9.68;;;;;;;13.04;100.00;94809.06;5107620;27;20197;-68
2022/09/13 06:28:54;;;;;;;14.93;8.85;;;;;;;13.03;100.00;94807.47;5094186;28;20088;-69
2022/09/13 06:31:24;;;;;;;57.70;27.73;;;;;;;13.18;100.00;94805.81;5095930;28;20035;-71
2022/09/13 06:33:59;;;;;;;10.68;7.72;;;;;;;13.41;100.00;94814.38;5100045;28;20040;-71
2022/09/13 06:36:27;;;;;;;9.63;7.22;;;;;;;13.59;100.00;94805.38;5096920;28;20124;-70
2022/09/13 06:38:54;;;;;;;12.68;9.65;;;;;;;13.76;100.00;94810.50;5099144;28;20526;-70
2022/09/13 06:41:23;;;;;;;9.77;6.78;;;;;;;13.99;100.00;94819.00;5096823;28;20140;-71
2022/09/13 06:43:56;;;;;;;9.98;7.05;;;;;;;14.06;100.00;94819.59;5091894;28;20052;-71
2022/09/13 06:46:25;;;;;;;17.27;6.38;;;;;;;14.16;100.00;94814.41;5084589;27;20036;-70
2022/09/13 06:48:52;;;;;;;13.00;7.88;;;;;;;14.39;100.00;94818.47;5106725;27;20054;-71
2022/09/13 06:51:23;;;;;;;8.35;6.75;;;;;;;14.63;100.00;94829.34;5086670;27;20573;-71
2022/09/13 06:53:52;;;;;;;9.50;6.10;;;;;;;14.70;100.00;94834.34;5098506;27;20051;-70
2022/09/13 06:56:24;;;;;;;10.73;6.88;;;;;;;14.78;100.00;94840.94;5098207;27;20065;-71
2022/09/13 06:58:55;;;;;;;9.73;6.68;;;;;;;14.75;100.00;94841.44;5099577;27;20761;-71
2022/09/13 07:01:28;;;;;;;6.82;5.40;;;;;;;14.85;100.00;94841.47;5067523;28;20052;-71
2022/09/13 07:04:00;;;;;;;12.07;4.82;;;;;;;14.99;100.00;94832.09;5062902;28;20056;-71
2022/09/13 07:06:33;;;;;;;13.10;9.10;;;;;;;15.24;100.00;94833.19;5061852;28;20049;-70
2022/09/13 07:09:02;;;;;;;12.25;7.55;;;;;;;15.31;100.00;94833.75;5059907;28;20033;-71
2022/09/13 07:11:32;;;;;;;5.78;4.75;;;;;;;15.47;100.00;94853.72;5059213;28;20123;-69
2022/09/13 07:14:00;;;;;;;5.07;3.92;;;;;;;15.57;100.00;94841.63;5063015;28;20135;-69
2022/09/13 07:16:31;;;;;;;9.15;4.97;;;;;;;15.72;100.00;94844.28;5066720;28;20067;-75
2022/09/13 07:19:06;;;;;;;6.68;4.70;;;;;;;15.88;100.00;94852.97;5071309;28;20051;-76
2022/09/13 07:21:34;;;;;;;12.88;4.88;;;;;;;15.96;100.00;94836.69;5064020;28;20725;-75
2022/09/13 07:24:01;;;;;;;3.70;3.33;;;;;;;16.09;100.00;94837.97;5058519;28;20074;-78
2022/09/13 07:26:30;;;;;;;7.53;2.97;;;;;;;16.08;100.00;94814.59;5062952;28;20729;-71
2022/09/13 07:28:59;;;;;;;8.18;4.43;;;;;;;16.45;100.00;94843.16;5060452;28;20055;-71
2022/09/13 07:31:34;;;;;;;6.68;4.30;;;;;;;16.63;100.00;94847.81;5055967;28;20098;-70
2022/09/13 07:34:03;;;;;;;5.20;4.18;;;;;;;16.71;100.00;94841.25;5053588;28;20101;-69
2022/09/13 07:36:32;;;;;;;6.97;4.05;;;;;;;16.87;99.80;94847.28;5055837;28;20029;-69
2022/09/13 07:38:59;;;;;;;5.53;3.22;;;;;;;16.81;98.21;94843.03;5055636;28;20041;-69
2022/09/13 07:41:27;;;;;;;7.15;3.58;;;;;;;17.00;98.02;94851.94;5062502;28;20044;-70
2022/09/13 07:43:55;;;;;;;3.95;2.42;;;;;;;17.06;94.48;94838.75;5056902;28;20582;-69
2022/09/13 07:46:24;;;;;;;4.70;2.63;;;;;;;17.27;93.37;94850.75;5057328;28;20064;-68
2022/09/13 07:48:53;;;;;;;9.18;5.32;;;;;;;17.37;91.33;94855.94;5057097;28;20052;-69
2022/09/13 07:51:22;;;;;;;3.15;2.20;;;;;;;17.35;84.29;94847.53;5061264;28;20044;-69
2022/09/13 07:53:51;;;;;;;8.32;4.22;;;;;;;17.51;86.32;94829.00;5059558;28;20046;-69
2022/09/13 07:56:26;;;;;;;6.55;2.38;;;;;;;17.74;84.87;94854.66;5056345;28;20803;-69
2022/09/13 07:58:54;;;;;;;4.15;3.17;;;;;;;17.85;88.07;94849.31;5061458;28;20129;-75
2022/09/13 08:01:34;;;;;;;8.13;3.65;;;;;;;17.67;91.07;94859.44;5078641;27;20051;-75
2022/09/13 08:04:09;;;;;;;4.97;3.10;;;;;;;17.91;89.26;94853.50;5078632;28;20044;-75
2022/09/13 08:06:37;;;;;;;5.30;3.65;;;;;;;17.91;82.13;94827.13;5069860;27;20046;-76
2022/09/13 08:09:07;;;;;;;4.63;3.13;;;;;;;18.02;83.14;94854.97;5095149;27;20048;-75
2022/09/13 08:11:36;;;;;;;3.08;2.20;;;;;;;17.90;80.95;94857.19;5096697;27;20063;-75
2022/09/13 08:14:04;;;;;;;4.30;2.40;;;;;;;17.88;79.08;94843.50;5083853;27;20044;-75
2022/09/13 08:16:32;;;;;;;2.95;2.05;;;;;;;17.85;77.09;94859.84;5079660;27;20181;-74
2022/09/13 08:19:01;;;;;;;2.20;2.00;;;;;;;17.39;76.64;94811.72;5101410;27;20035;-74
2022/09/13 08:21:39;;;;;;;3.05;2.00;;;;;;;17.87;78.14;94849.84;5095207;27;20170;-75
2022/09/13 08:24:12;;;;;;;4.88;2.30;;;;;;;18.05;77.05;94851.78;5081092;28;20059;-75
2022/09/13 08:26:39;;;;;;;5.97;2.97;;;;;;;18.30;76.78;94850.00;5095128;27;20064;-69
2022/09/13 08:29:06;;;;;;;3.20;1.60;;;;;;;18.47;63.22;94839.78;5100971;27;20036;-78
2022/09/13 08:31:35;;;;;;;2.10;1.42;;;;;;;18.74;61.61;94854.25;5064361;27;20078;-78
2022/09/13 08:34:02;;;;;;;2.95;2.35;;;;;;;18.85;59.11;94824.09;5083189;27;20831;-77
2022/09/13 08:36:30;;;;;;;2.83;1.48;;;;;;;19.23;59.09;94845.25;5080884;28;20127;-78
2022/09/13 08:38:59;;;;;;;3.95;1.90;;;;;;;19.49;61.13;94836.97;5098615;27;20066;-78
2022/09/13 08:41:38;;;;;;;3.47;1.50;;;;;;;19.48;60.15;94835.38;5084166;27;20036;-77
2022/09/13 08:44:22;;;;;;;2.45;2.05;;;;;;;19.10;61.75;94851.22;5082158;27;20131;-77
2022/09/13 08:46:50;;;;;;;4.32;1.70;;;;;;;18.74;59.45;94848.97;5078130;28;20048;-76
2022/09/13 08:49:24;;;;;;;2.35;1.73;;;;;;;18.56;59.92;94860.25;5096189;27;20043;-79
2022/09/13 08:52:20;;;;;;;3.33;1.90;;;;;;;18.39;59.52;94848.31;5079387;28;20055;-68
2022/09/13 08:54:48;;;;;;;6.97;1.92;;;;;;;18.27;61.98;94850.53;5062370;27;20859;-68
2022/09/13 08:57:28;;;;;;;2.47;1.90;;;;;;;18.17;62.68;94842.72;5101400;27;20127;-69
2022/09/13 09:00:05;;;;;;;3.08;1.25;;;;;;;18.24;64.79;94824.72;5099266;27;20184;-74
2022/09/13 09:02:53;;;;;;;4.45;2.47;;;;;;;18.38;65.62;94841.44;5115512;27;20416;-74
2022/09/13 09:05:23;;;;;;;6.57;2.92;;;;;;;18.61;66.96;94836.47;5098406;27;20035;-73
2022/09/13 09:07:57;;;;;;;3.30;1.98;;;;;;;19.14;65.01;94831.13;5123169;27;20039;-74
2022/09/13 09:10:52;;;;;;;2.40;2.03;;;;;;;19.39;59.74;94852.94;5106711;27;20044;-75
2022/09/13 09:13:27;;;;;;;2.15;1.42;;;;;;;19.13;58.29;94855.94;5110629;27;20069;-74
2022/09/13 09:16:00;;;;;;;2.03;1.45;;;;;;;18.85;58.21;94852.31;5108178;27;20041;-75
2022/09/13 09:18:35;;;;;;;1.45;1.10;;;;;;;18.86;55.55;94862.59;5105151;28;20031;-74
2022/09/13 09:21:05;;;;;;;2.08;1.40;;;;;;;19.15;54.89;94853.00;5118462;27;20048;-75
2022/09/13 09:23:38;;;;;;;1.65;1.00;;;;;;;19.50;52.32;94843.81;5125659;27;20064;-74
2022/09/13 09:26:28;;;;;;;1.63;0.95;;;;;;;20.18;51.30;94847.00;5100218;28;20043;-74
2022/09/13 09:29:11;;;;;;;3.53;0.80;;;;;;;20.79;49.03;94829.22;5091447;28;20428;-71
2022/09/13 09:31:38;;;;;;;1.80;1.13;;;;;;;21.28;49.54;94840.16;5101733;27;20170;-69
2022/09/13 09:34:32;;;;;;;5.90;1.42;;;;;;;20.77;49.62;94837.47;5106435;27;20051;-69
2022/09/13 09:37:21;;;;;;;2.38;1.42;;;;;;;20.26;50.55;94838.41;5082005;28;20054;-69
2022/09/13 09:39:49;;;;;;;2.10;1.13;;;;;;;20.10;50.05;94839.75;5103140;28;20063;-76
2022/09/13 09:42:28;;;;;;;4.07;1.30;;;;;;;19.77;50.92;94847.66;5099612;28;20059;-67
2022/09/13 09:45:03;;;;;;;2.15;1.48;;;;;;;19.58;52.71;94834.47;5104359;28;20082;-71
2022/09/13 09:47:45;;;;;;;5.72;1.65;;;;;;;19.08;52.96;94811.13;5105609;28;20090;-71
2022/09/13 09:50:21;;;;;;;4.43;1.52;;;;;;;19.23;52.53;94823.31;5089606;28;20667;-67
2022/09/13 09:52:56;;;;;;;2.85;1.50;;;;;;;19.34;51.61;94818.69;5093439;28;20143;-67
2022/09/13 09:55:25;;;;;;;2.53;1.38;;;;;;;19.60;52.13;94816.47;5099448;28;20051;-67
2022/09/13 09:57:55;;;;;;;1.67;1.35;;;;;;;19.82;49.12;94797.38;5102179;27;20146;-67
2022/09/13 10:00:25;;;;;;;2.60;1.33;;;;;;;20.58;50.35;94807.66;5105223;28;20119;-69
2022/09/13 10:02:56;;;;;;;1.58;1.10;;;;;;;20.47;47.50;94779.81;5103894;27;20113;-66
2022/09/13 10:05:25;;;;;;;3.72;1.40;;;;;;;20.67;47.52;94795.34;5085320;28;20047;-68
2022/09/13 10:08:05;;;;;;;2.03;1.17;;;;;;;21.08;46.46;94799.78;5065525;28;20596;-67
2022/09/13 10:10:37;;;;;;;3.70;2.17;;;;;;;21.36;45.34;94807.66;5101286;28;20158;-68
2022/09/13 10:13:12;;;;;;;2.13;0.73;;;;;;;21.39;43.95;94814.97;5092276;28;20152;-68
2022/09/13 10:15:53;;;;;;;1.90;1.67;;;;;;;20.74;46.60;94806.31;5097830;28;20127;-68
2022/09/13 10:18:21;;;;;;;1.83;1.40;;;;;;;20.73;46.83;94810.03;5096264;28;20047;-68
2022/09/13 10:21:18;;;;;;;3.05;1.25;;;;;;;20.85;44.87;94808.75;5080322;28;20071;-68
2022/09/13 10:23:47;;;;;;;2.83;1.40;;;;;;;20.99;45.47;94807.66;5098396;27;20041;-67
2022/09/13 10:26:16;;;;;;;2.78;1.45;;;;;;;21.05;43.97;94813.63;5085746;28;20051;-67
2022/09/13 10:29:14;;;;;;;1.88;1.10;;;;;;;20.96;45.89;94802.19;5098326;27;20067;-68
2022/09/13 10:31:44;;;;;;;2.63;1.70;;;;;;;20.87;44.37;94803.94;5087136;27;20170;-67
2022/09/13 10:34:29;;;;;;;1.73;1.30;;;;;;;21.15;43.01;94800.16;5103074;27;20707;-66
2022/09/13 10:36:58;;;;;;;2.13;1.00;;;;;;;21.10;41.74;94787.00;5101978;27;20047;-67
2022/09/13 10:39:29;;;;;;;1.30;0.90;;;;;;;21.44;42.74;94790.25;5085402;28;20115;-67
2022/09/13 10:42:01;;;;;;;3.67;1.13;;;;;;;21.65;41.67;94791.38;5101042;27;20046;-67
2022/09/13 10:44:38;;;;;;;2.13;1.05;;;;;;;21.58;42.02;94786.50;5105532;27;20036;-66
2022/09/13 10:47:12;;;;;;;2.28;1.23;;;;;;;21.79;44.10;94791.31;5098247;27;20050;-66
2022/09/13 10:49:45;;;;;;;2.25;1.38;;;;;;;22.12;41.94;94788.38;5099473;27;20117;-66
2022/09/13 10:52:33;;;;;;;3.45;2.00;;;;;;;22.01;42.49;94787.06;5080920;27;20043;-68
2022/09/13 10:55:17;;;;;;;5.68;1.48;;;;;;;21.91;42.93;94791.56;5099974;27;20066;-67
2022/09/13 10:58:12;;;;;;;2.65;1.38;;;;;;;22.11;42.96;94776.97;5099766;27;20715;-66
2022/09/13 11:01:04;;;;;;;2.88;1.30;;;;;;;22.29;40.32;94777.88;5065077;27;20800;-67
2022/09/13 11:03:45;;;;;;;1.63;1.10;;;;;;;22.63;40.42;94776.41;5104619;27;20039;-67
2022/09/13 11:06:12;;;;;;;1.67;1.20;;;;;;;22.68;39.90;94778.91;5083054;27;20491;-65
2022/09/13 11:09:08;;;;;;;1.88;1.58;;;;;;;22.67;40.42;94766.75;5099966;27;20806;-67
2022/09/13 11:12:09;;;;;;;2.42;1.58;;;;;;;23.31;38.31;94768.09;5086115;27;20048;-67
2022/09/13 11:14:38;;;;;;;6.32;1.95;;;;;;;23.12;39.66;94771.06;5105554;27;20122;-67
2022/09/13 11:17:26;;;;;;;2.53;1.35;;;;;;;22.90;38.36;94775.38;5081985;28;20138;-67
2022/09/13 11:20:08;;;;;;;6.22;2.60;;;;;;;22.82;39.14;94767.41;5104554;27;20198;-67
2022/09/13 11:22:54;;;;;;;3.03;1.90;;;;;;;23.08;39.21;94765.59;5087016;27;20085;-67
2022/09/13 11:25:26;;;;;;;2.28;1.27;;;;;;;22.66;40.22;94761.75;5081296;27;20050;-68
2022/09/13 11:28:12;;;;;;;2.88;2.05;;;;;;;22.37;41.14;94757.00;5101400;27;20138;-69
2022/09/13 11:30:56;;;;;;;2.38;1.75;;;;;;;22.83;39.96;94767.09;5102890;27;20052;-70
2022/09/13 11:33:39;;;;;;;3.70;1.40;;;;;;;23.03;38.54;94763.06;5082507;28;20131;-70
2022/09/13 11:36:34;;;;;;;2.47;1.70;;;;;;;23.32;36.86;94769.66;5103120;27;20047;-70
2022/09/13 11:39:17;;;;;;;2.88;1.75;;;;;;;23.58;38.27;94766.19;5082599;28;20075;-70
2022/09/13 11:42:01;;;;;;;1.88;1.45;;;;;;;22.98;38.02;94755.25;5103609;27;20038;-69
2022/09/13 11:45:06;;;;;;;1.88;1.65;;;;;;;23.38;37.55;94768.41;5080730;27;20047;-70
2022/09/13 11:47:48;;;;;;;3.08;1.67;;;;;;;23.00;38.48;94757.59;5084736;28;20047;-70
2022/09/13 11:50:28;;;;;;;1.83;1.45;;;;;;;22.99;38.65;94762.09;5099478;27;20048;-70
2022/09/13 11:53:32;;;;;;;1.85;1.70;;;;;;;23.43;38.48;94748.88;5103069;27;20047;-70